Time;durP1;ratioP1;P1;durP2;ratioP2;P2;SDS_P1;SDS_P2;PMS_P1;PMS_P2;Temp;Humidity;BMP_temperature;BMP_pressure;BME280_temperature;BME280_humidity;BME280_pressure;Samples;Min_cycle;Max_cycle;Signal;HPM_P1;HPM_P2
2023/03/23 00:01:10;;;;;;;9.25;5.97;;;;;;;;;;4903895;29;20025;-80
2023/03/23 00:03:38;;;;;;;8.55;5.70;;;;;;;;;;4906721;29;20434;-80
2023/03/23 00:06:06;;;;;;;10.25;6.82;;;;;;;;;;4903485;29;20020;-80
2023/03/23 00:08:37;;;;;;;10.68;6.55;;;;;;;;;;4886905;29;20029;-80
2023/03/23 00:11:03;;;;;;;10.82;6.95;;;;;;;;;;4886014;29;20100;-80
2023/03/23 00:13:29;;;;;;;10.55;7.15;;;;;;;;;;4886389;29;20065;-80
2023/03/23 00:15:56;;;;;;;12.82;7.47;;;;;;;;;;4884296;29;20033;-81
2023/03/23 00:18:23;;;;;;;12.20;7.97;;;;;;;;;;4901410;29;20053;-81
2023/03/23 00:20:50;;;;;;;13.48;8.20;;;;;;;;;;4905352;29;20028;-80
2023/03/23 00:23:18;;;;;;;13.02;8.35;;;;;;;;;;4903873;29;20122;-80
2023/03/23 00:25:48;;;;;;;12.88;8.57;;;;;;;;;;4906918;29;20025;-80
2023/03/23 00:28:14;;;;;;;14.77;8.85;;;;;;;;;;4905378;29;20024;-81
2023/03/23 00:30:41;;;;;;;14.55;9.65;;;;;;;;;;4904346;29;20028;-80
2023/03/23 00:33:08;;;;;;;16.02;10.40;;;;;;;;;;4904884;29;20116;-80
2023/03/23 00:35:35;;;;;;;16.75;10.55;;;;;;;;;;4902490;29;20032;-80
2023/03/23 00:38:02;;;;;;;19.02;10.88;;;;;;;;;;4904770;29;20429;-81
2023/03/23 00:40:28;;;;;;;17.33;10.55;;;;;;;;;;4902431;29;20055;-80
2023/03/23 00:42:54;;;;;;;16.58;11.55;;;;;;;;;;4904820;29;20043;-80
2023/03/23 00:45:20;;;;;;;16.88;11.23;;;;;;;;;;4906097;29;20049;-80
2023/03/23 00:47:46;;;;;;;21.55;12.35;;;;;;;;;;4910929;29;20032;-81
2023/03/23 00:50:13;;;;;;;18.27;11.23;;;;;;;;;;4912032;29;20032;-80
2023/03/23 00:52:39;;;;;;;16.63;10.30;;;;;;;;;;4905144;29;20021;-81
2023/03/23 00:55:06;;;;;;;17.42;9.68;;;;;;;;;;4904317;29;20025;-80
2023/03/23 00:57:32;;;;;;;15.75;8.60;;;;;;;;;;4904198;29;20029;-80
2023/03/23 00:59:58;;;;;;;13.90;8.13;;;;;;;;;;4918003;29;20047;-80
2023/03/23 01:02:27;;;;;;;10.30;7.18;;;;;;;;;;4904181;29;20032;-80
2023/03/23 01:04:53;;;;;;;16.75;9.05;;;;;;;;;;4902949;29;20052;-80
2023/03/23 01:07:20;;;;;;;15.70;9.48;;;;;;;;;;4922576;29;20043;-80
2023/03/23 01:09:47;;;;;;;16.58;9.85;;;;;;;;;;4910701;29;20105;-80
2023/03/23 01:12:14;;;;;;;17.75;10.52;;;;;;;;;;4924777;29;20029;-80
2023/03/23 01:14:40;;;;;;;17.00;10.43;;;;;;;;;;4911078;29;20028;-80
2023/03/23 01:17:06;;;;;;;15.13;10.13;;;;;;;;;;4925407;29;20103;-80
2023/03/23 01:19:32;;;;;;;12.55;8.50;;;;;;;;;;4950753;29;20038;-81
2023/03/23 01:21:58;;;;;;;15.55;8.68;;;;;;;;;;4951632;29;20379;-81
2023/03/23 01:24:24;;;;;;;13.43;8.25;;;;;;;;;;4948627;29;20035;-80
2023/03/23 01:26:50;;;;;;;13.05;8.00;;;;;;;;;;4948123;29;20028;-81
2023/03/23 01:29:16;;;;;;;16.25;8.48;;;;;;;;;;4948382;29;20024;-81
2023/03/23 01:31:42;;;;;;;17.67;8.80;;;;;;;;;;4946366;29;20113;-80
2023/03/23 01:34:10;;;;;;;12.82;8.18;;;;;;;;;;4946354;29;20038;-81
2023/03/23 01:36:36;;;;;;;13.07;7.50;;;;;;;;;;4939866;29;20455;-81
2023/03/23 01:39:03;;;;;;;13.43;7.85;;;;;;;;;;4926672;29;20499;-81
2023/03/23 01:41:30;;;;;;;10.32;7.03;;;;;;;;;;4927794;29;20038;-80
2023/03/23 01:43:56;;;;;;;12.82;7.03;;;;;;;;;;4926608;29;20028;-80
2023/03/23 01:46:22;;;;;;;14.43;6.40;;;;;;;;;;4925402;29;20410;-81
2023/03/23 01:48:49;;;;;;;13.25;6.57;;;;;;;;;;4926014;29;20032;-81
2023/03/23 01:51:17;;;;;;;12.98;6.70;;;;;;;;;;4926284;29;20028;-80
2023/03/23 01:53:45;;;;;;;10.90;6.78;;;;;;;;;;4939123;29;20023;-80
2023/03/23 01:56:13;;;;;;;9.85;6.03;;;;;;;;;;4944576;29;20390;-81
2023/03/23 01:58:40;;;;;;;11.60;6.82;;;;;;;;;;4944221;29;20361;-81
2023/03/23 02:01:08;;;;;;;12.75;6.07;;;;;;;;;;4944400;29;20034;-80
2023/03/23 02:03:35;;;;;;;8.90;5.28;;;;;;;;;;4943779;29;20035;-81
2023/03/23 02:06:02;;;;;;;10.60;5.80;;;;;;;;;;4934767;29;20107;-80
2023/03/23 02:08:29;;;;;;;10.13;5.53;;;;;;;;;;4923752;29;20243;-80
2023/03/23 02:10:55;;;;;;;11.18;6.13;;;;;;;;;;4924408;29;20024;-80
2023/03/23 02:13:22;;;;;;;11.13;5.90;;;;;;;;;;4922435;29;20028;-81
2023/03/23 02:16:00;;;;;;;10.07;4.97;;;;;;;;;;4922190;29;20462;-81
2023/03/23 02:18:40;;;;;;;9.10;5.15;;;;;;;;;;4922569;29;20055;-81
2023/03/23 02:21:27;;;;;;;11.65;5.15;;;;;;;;;;4924059;29;20091;-80
2023/03/23 02:24:00;;;;;;;9.05;4.63;;;;;;;;;;4912717;29;20059;-80
2023/03/23 02:26:29;;;;;;;8.90;5.10;;;;;;;;;;4923745;29;20111;-80
2023/03/23 02:28:58;;;;;;;9.07;5.28;;;;;;;;;;4921934;29;20475;-80
2023/03/23 02:31:43;;;;;;;9.77;4.90;;;;;;;;;;4921186;29;20028;-80
2023/03/23 02:34:14;;;;;;;9.85;4.50;;;;;;;;;;4938824;29;20057;-80
2023/03/23 02:36:46;;;;;;;10.15;4.38;;;;;;;;;;4940006;29;20035;-80
2023/03/23 02:39:31;;;;;;;8.98;4.47;;;;;;;;;;4939898;29;20386;-80
2023/03/23 02:41:59;;;;;;;7.78;4.07;;;;;;;;;;4940048;29;20028;-80
2023/03/23 02:44:29;;;;;;;13.43;4.30;;;;;;;;;;4939957;29;20051;-80
2023/03/23 02:46:56;;;;;;;8.93;4.00;;;;;;;;;;4941578;29;20020;-80
2023/03/23 02:49:23;;;;;;;8.93;4.05;;;;;;;;;;4942174;29;20020;-80
2023/03/23 02:51:49;;;;;;;5.47;3.58;;;;;;;;;;4939423;29;20027;-80
2023/03/23 02:54:16;;;;;;;8.52;4.00;;;;;;;;;;4941922;29;20027;-80
2023/03/23 02:56:42;;;;;;;4.50;3.40;;;;;;;;;;4941995;29;20016;-80
2023/03/23 02:59:09;;;;;;;5.82;3.15;;;;;;;;;;4942613;29;20510;-80
2023/03/23 03:01:38;;;;;;;6.53;3.72;;;;;;;;;;4937843;29;20103;-80
2023/03/23 03:04:13;;;;;;;6.32;3.95;;;;;;;;;;4924134;29;20025;-80
2023/03/23 03:06:39;;;;;;;7.55;4.35;;;;;;;;;;4922992;29;20039;-80
2023/03/23 03:09:09;;;;;;;8.13;4.15;;;;;;;;;;4921506;29;20036;-80
2023/03/23 03:11:37;;;;;;;6.70;3.45;;;;;;;;;;4919462;29;20083;-80
2023/03/23 03:14:17;;;;;;;7.97;3.50;;;;;;;;;;4919885;29;20040;-80
2023/03/23 03:16:50;;;;;;;7.45;3.20;;;;;;;;;;4919733;29;20120;-81
2023/03/23 03:19:25;;;;;;;9.85;2.75;;;;;;;;;;4920462;29;20076;-81
2023/03/23 03:21:52;;;;;;;8.27;2.10;;;;;;;;;;4921667;29;20024;-81
2023/03/23 03:24:19;;;;;;;4.80;1.92;;;;;;;;;;4928037;29;20032;-81
2023/03/23 03:26:47;;;;;;;4.32;1.58;;;;;;;;;;4927899;29;20024;-81
2023/03/23 03:29:23;;;;;;;8.38;1.80;;;;;;;;;;4930320;29;20032;-81
2023/03/23 03:31:50;;;;;;;8.30;2.10;;;;;;;;;;4939780;29;20036;-80
2023/03/23 03:34:17;;;;;;;7.30;2.38;;;;;;;;;;4949504;29;20031;-81
2023/03/23 03:36:45;;;;;;;5.50;2.35;;;;;;;;;;4949172;29;20042;-81
2023/03/23 03:39:12;;;;;;;7.10;1.77;;;;;;;;;;4948610;29;20034;-80
2023/03/23 03:41:38;;;;;;;7.72;2.22;;;;;;;;;;4949015;29;20028;-81
2023/03/23 03:44:05;;;;;;;14.90;2.20;;;;;;;;;;4949770;29;20119;-80
2023/03/23 03:46:32;;;;;;;9.52;2.60;;;;;;;;;;4963944;28;20023;-81
2023/03/23 03:48:58;;;;;;;4.15;1.63;;;;;;;;;;4949726;29;20052;-81
2023/03/23 03:51:25;;;;;;;3.00;1.70;;;;;;;;;;4962924;29;20048;-80
2023/03/23 03:53:51;;;;;;;3.65;1.70;;;;;;;;;;4955721;28;20027;-80
2023/03/23 03:56:17;;;;;;;8.18;1.65;;;;;;;;;;4941634;29;20067;-80
2023/03/23 03:58:43;;;;;;;4.60;1.73;;;;;;;;;;4941881;29;20484;-80
2023/03/23 04:01:10;;;;;;;5.97;2.00;;;;;;;;;;4955460;28;20047;-80
2023/03/23 04:03:36;;;;;;;7.63;2.40;;;;;;;;;;4954957;29;20406;-81
2023/03/23 04:06:02;;;;;;;6.35;1.90;;;;;;;;;;4955950;28;20035;-80
2023/03/23 04:08:28;;;;;;;5.22;1.50;;;;;;;;;;4944079;29;20034;-80
2023/03/23 04:10:54;;;;;;;4.32;1.58;;;;;;;;;;4943979;29;20052;-80
2023/03/23 04:13:20;;;;;;;9.82;2.00;;;;;;;;;;4944125;29;20060;-80
2023/03/23 04:15:47;;;;;;;10.13;1.60;;;;;;;;;;4958414;29;20028;-80
2023/03/23 04:18:14;;;;;;;10.60;1.55;;;;;;;;;;4958171;28;20077;-80
2023/03/23 04:20:41;;;;;;;7.60;1.48;;;;;;;;;;4944682;29;20074;-80
2023/03/23 04:23:07;;;;;;;10.52;2.00;;;;;;;;;;4942972;29;20044;-80
2023/03/23 04:25:33;;;;;;;12.95;1.90;;;;;;;;;;4955642;29;20024;-80
2023/03/23 04:28:00;;;;;;;7.90;2.00;;;;;;;;;;4941545;29;20478;-80
2023/03/23 04:30:27;;;;;;;10.80;2.75;;;;;;;;;;4939722;29;20028;-80
2023/03/23 04:32:56;;;;;;;9.63;2.38;;;;;;;;;;4940875;29;20031;-80
2023/03/23 04:35:28;;;;;;;10.80;2.03;;;;;;;;;;4941064;29;20086;-80
2023/03/23 04:37:54;;;;;;;15.60;2.30;;;;;;;;;;4941840;29;20442;-80
2023/03/23 04:40:21;;;;;;;6.60;1.60;;;;;;;;;;4941305;29;20497;-80
2023/03/23 04:42:48;;;;;;;16.52;2.53;;;;;;;;;;4956666;29;20127;-80
2023/03/23 04:45:15;;;;;;;12.27;2.22;;;;;;;;;;4942105;29;20020;-80
2023/03/23 04:47:42;;;;;;;14.60;2.78;;;;;;;;;;4942222;29;20028;-80
2023/03/23 04:50:09;;;;;;;11.27;2.40;;;;;;;;;;4942061;29;20337;-80
2023/03/23 04:52:37;;;;;;;12.70;2.17;;;;;;;;;;4941712;29;20045;-80
2023/03/23 04:55:03;;;;;;;17.17;2.88;;;;;;;;;;4941731;29;20019;-80
2023/03/23 04:57:29;;;;;;;15.38;2.13;;;;;;;;;;4941179;29;20501;-80
2023/03/23 04:59:55;;;;;;;12.05;2.80;;;;;;;;;;4940207;29;20118;-80
2023/03/23 05:02:21;;;;;;;12.05;1.90;;;;;;;;;;4938966;29;20513;-80
2023/03/23 05:04:48;;;;;;;11.95;2.20;;;;;;;;;;4940765;29;20046;-80
2023/03/23 05:07:15;;;;;;;15.35;2.55;;;;;;;;;;4940479;29;20386;-80
2023/03/23 05:09:41;;;;;;;12.43;2.38;;;;;;;;;;4940206;29;20020;-80
2023/03/23 05:12:08;;;;;;;9.68;2.33;;;;;;;;;;4939227;29;20034;-80
2023/03/23 05:14:40;;;;;;;16.35;3.00;;;;;;;;;;4938577;29;20386;-78
2023/03/23 05:17:07;;;;;;;15.40;2.40;;;;;;;;;;4934405;29;20561;-78
2023/03/23 05:19:33;;;;;;;11.95;2.65;;;;;;;;;;4936342;29;20055;-78
2023/03/23 05:22:02;;;;;;;13.43;2.72;;;;;;;;;;4935340;29;20106;-79
2023/03/23 05:24:31;;;;;;;16.42;2.65;;;;;;;;;;4934038;29;20032;-78
2023/03/23 05:26:57;;;;;;;14.65;3.15;;;;;;;;;;4935328;29;20016;-79
2023/03/23 05:29:24;;;;;;;11.63;2.15;;;;;;;;;;4926141;29;20084;-79
2023/03/23 05:31:50;;;;;;;20.13;3.63;;;;;;;;;;4931016;29;20450;-78
2023/03/23 05:34:16;;;;;;;14.93;2.30;;;;;;;;;;4934373;29;20401;-78
2023/03/23 05:36:43;;;;;;;15.60;2.42;;;;;;;;;;4935326;29;20020;-78
2023/03/23 05:39:09;;;;;;;13.98;2.45;;;;;;;;;;4935939;29;20056;-78
2023/03/23 05:41:36;;;;;;;15.70;2.47;;;;;;;;;;4936518;29;20024;-78
2023/03/23 05:44:02;;;;;;;12.25;2.00;;;;;;;;;;4933805;29;20035;-79
2023/03/23 05:46:28;;;;;;;10.07;1.42;;;;;;;;;;4936823;29;20371;-79
2023/03/23 05:48:54;;;;;;;9.77;1.58;;;;;;;;;;4940227;29;20097;-79
2023/03/23 05:51:20;;;;;;;8.82;1.48;;;;;;;;;;4955813;28;20027;-79
2023/03/23 05:53:47;;;;;;;8.55;1.40;;;;;;;;;;4932352;29;20471;-79
2023/03/23 05:56:14;;;;;;;10.88;1.42;;;;;;;;;;4917661;29;20024;-79
2023/03/23 05:58:40;;;;;;;8.75;1.55;;;;;;;;;;4949432;29;20027;-79
2023/03/23 06:01:07;;;;;;;5.18;1.00;;;;;;;;;;4936362;29;20032;-79
2023/03/23 06:03:35;;;;;;;7.88;1.27;;;;;;;;;;4935837;29;20040;-79
2023/03/23 06:06:01;;;;;;;9.02;1.38;;;;;;;;;;4935255;29;20047;-79
2023/03/23 06:08:27;;;;;;;7.65;1.48;;;;;;;;;;4938554;29;20023;-79
2023/03/23 06:10:53;;;;;;;8.98;1.70;;;;;;;;;;4935693;29;20439;-79
2023/03/23 06:13:19;;;;;;;11.57;2.38;;;;;;;;;;4917630;29;20031;-79
2023/03/23 06:15:45;;;;;;;12.05;2.78;;;;;;;;;;4944644;29;20019;-78
2023/03/23 06:18:12;;;;;;;10.68;1.60;;;;;;;;;;4936662;28;20066;-79
2023/03/23 06:20:39;;;;;;;9.63;1.75;;;;;;;;;;4916895;29;20028;-79
2023/03/23 06:23:05;;;;;;;9.25;1.48;;;;;;;;;;4915541;29;20055;-78
2023/03/23 06:25:31;;;;;;;8.32;1.60;;;;;;;;;;4915194;29;20032;-78
2023/03/23 06:27:57;;;;;;;9.38;1.70;;;;;;;;;;4916407;29;20411;-78
2023/03/23 06:30:23;;;;;;;10.40;1.95;;;;;;;;;;4911619;29;20044;-79
2023/03/23 06:32:50;;;;;;;14.30;2.92;;;;;;;;;;4913697;29;20456;-79
2023/03/23 06:35:16;;;;;;;19.30;4.18;;;;;;;;;;4911660;29;20483;-79
2023/03/23 06:37:42;;;;;;;16.67;2.60;;;;;;;;;;4897080;29;20025;-79
2023/03/23 06:40:09;;;;;;;18.33;2.70;;;;;;;;;;4897455;29;20036;-79
2023/03/23 06:42:36;;;;;;;18.08;3.20;;;;;;;;;;4896393;29;20376;-79
2023/03/23 06:45:03;;;;;;;13.57;3.53;;;;;;;;;;4896259;29;20115;-79
2023/03/23 06:47:29;;;;;;;19.55;4.10;;;;;;;;;;4896846;29;20036;-79
2023/03/23 06:49:56;;;;;;;21.02;3.33;;;;;;;;;;4898522;29;20419;-79
2023/03/23 06:52:22;;;;;;;18.58;3.75;;;;;;;;;;4896229;29;20024;-78
2023/03/23 06:54:49;;;;;;;23.75;3.42;;;;;;;;;;4896148;29;20543;-79
2023/03/23 06:57:15;;;;;;;19.17;4.60;;;;;;;;;;4896052;29;20033;-78
2023/03/23 06:59:42;;;;;;;17.55;3.28;;;;;;;;;;4894184;29;20107;-79
2023/03/23 07:02:09;;;;;;;18.30;3.03;;;;;;;;;;4896903;29;20116;-78
2023/03/23 07:04:35;;;;;;;20.80;3.67;;;;;;;;;;4898086;29;20037;-79
2023/03/23 07:07:01;;;;;;;23.73;3.90;;;;;;;;;;4899837;29;20048;-79
2023/03/23 07:09:27;;;;;;;21.73;3.10;;;;;;;;;;4899819;29;20236;-79
2023/03/23 07:11:53;;;;;;;27.10;5.13;;;;;;;;;;4899456;29;20101;-79
2023/03/23 07:14:21;;;;;;;17.77;3.40;;;;;;;;;;4898843;29;20040;-79
2023/03/23 07:16:48;;;;;;;21.92;2.92;;;;;;;;;;4900810;29;20035;-79
2023/03/23 07:19:13;;;;;;;17.60;3.22;;;;;;;;;;4937742;29;20115;-79
2023/03/23 07:21:39;;;;;;;25.52;3.60;;;;;;;;;;4937667;29;20099;-79
2023/03/23 07:24:06;;;;;;;21.33;3.28;;;;;;;;;;4936215;29;20479;-79
2023/03/23 07:26:32;;;;;;;17.95;3.63;;;;;;;;;;4937247;29;20024;-79
2023/03/23 07:28:58;;;;;;;20.33;3.50;;;;;;;;;;4935136;29;20042;-79
2023/03/23 07:31:24;;;;;;;19.70;3.30;;;;;;;;;;4935868;29;20115;-79
2023/03/23 07:33:51;;;;;;;18.40;3.30;;;;;;;;;;4935892;29;20103;-79
2023/03/23 07:36:17;;;;;;;19.92;3.35;;;;;;;;;;4935853;29;20075;-79
2023/03/23 07:38:43;;;;;;;19.65;3.30;;;;;;;;;;4935177;29;20028;-79
2023/03/23 07:41:09;;;;;;;17.65;2.88;;;;;;;;;;4936323;29;20114;-79
2023/03/23 07:43:35;;;;;;;16.42;2.80;;;;;;;;;;4938340;29;20112;-79
2023/03/23 07:46:01;;;;;;;17.15;4.18;;;;;;;;;;4936036;29;20350;-79
2023/03/23 07:48:27;;;;;;;14.02;2.72;;;;;;;;;;4937102;29;20521;-80
2023/03/23 07:50:53;;;;;;;14.23;3.53;;;;;;;;;;4937158;29;20402;-79
2023/03/23 07:53:21;;;;;;;20.52;3.58;;;;;;;;;;4936947;29;20562;-79
2023/03/23 07:55:47;;;;;;;16.90;2.83;;;;;;;;;;4937420;29;20518;-79
2023/03/23 07:58:18;;;;;;;21.17;4.47;;;;;;;;;;4938887;29;20039;-79
2023/03/23 08:00:45;;;;;;;21.92;3.15;;;;;;;;;;4936818;29;20066;-79
2023/03/23 08:03:12;;;;;;;12.73;2.78;;;;;;;;;;4932884;29;20139;-80
2023/03/23 08:05:38;;;;;;;17.50;3.30;;;;;;;;;;4934987;29;20497;-79
2023/03/23 08:08:04;;;;;;;17.75;2.92;;;;;;;;;;4937435;29;20024;-80
2023/03/23 08:10:30;;;;;;;18.17;3.28;;;;;;;;;;4935818;29;20039;-80
2023/03/23 08:12:59;;;;;;;17.65;3.28;;;;;;;;;;4919094;29;20024;-80
2023/03/23 08:15:26;;;;;;;16.13;3.45;;;;;;;;;;4932677;29;20075;-80
2023/03/23 08:17:52;;;;;;;22.05;4.13;;;;;;;;;;4923421;29;20075;-80
2023/03/23 08:20:18;;;;;;;22.38;2.97;;;;;;;;;;4931606;29;20027;-80
2023/03/23 08:22:56;;;;;;;16.75;2.83;;;;;;;;;;4939376;29;20027;-80
2023/03/23 08:25:24;;;;;;;17.77;3.30;;;;;;;;;;4936518;29;20035;-80
2023/03/23 08:27:50;;;;;;;16.20;3.78;;;;;;;;;;4935982;29;20028;-80
2023/03/23 08:30:19;;;;;;;12.90;3.88;;;;;;;;;;4931282;29;20020;-80
2023/03/23 08:32:45;;;;;;;13.52;2.80;;;;;;;;;;4936305;29;20446;-80
2023/03/23 08:35:12;;;;;;;15.23;3.72;;;;;;;;;;4919184;29;20028;-80
2023/03/23 08:37:38;;;;;;;15.15;3.42;;;;;;;;;;4936114;29;20019;-80
2023/03/23 08:40:09;;;;;;;18.17;3.10;;;;;;;;;;4929254;29;20032;-80
2023/03/23 08:42:36;;;;;;;16.60;3.42;;;;;;;;;;4936423;29;20020;-80
2023/03/23 08:45:09;;;;;;;14.63;3.40;;;;;;;;;;4935867;29;20079;-80
2023/03/23 08:47:36;;;;;;;18.27;3.35;;;;;;;;;;4936072;29;20071;-80
2023/03/23 08:50:02;;;;;;;17.33;3.60;;;;;;;;;;4920838;29;20074;-81
2023/03/23 08:52:29;;;;;;;14.45;3.30;;;;;;;;;;4936873;29;20028;-80
2023/03/23 08:54:56;;;;;;;19.38;4.70;;;;;;;;;;4935645;29;20020;-80
2023/03/23 08:57:23;;;;;;;21.10;4.25;;;;;;;;;;4920488;29;20035;-83
2023/03/23 08:59:49;;;;;;;15.60;3.45;;;;;;;;;;4934226;29;20023;-82
2023/03/23 09:02:16;;;;;;;20.55;3.85;;;;;;;;;;4917144;29;20024;-82
2023/03/23 09:04:42;;;;;;;16.45;4.07;;;;;;;;;;4933194;29;20470;-81
2023/03/23 09:07:12;;;;;;;14.10;3.58;;;;;;;;;;4941202;29;20027;-82
2023/03/23 09:09:39;;;;;;;17.25;3.53;;;;;;;;;;4952874;29;20019;-82
2023/03/23 09:12:06;;;;;;;18.75;4.30;;;;;;;;;;4946011;29;20055;-81
2023/03/23 09:14:32;;;;;;;14.07;3.28;;;;;;;;;;4920941;29;20028;-82
2023/03/23 09:16:58;;;;;;;15.05;3.83;;;;;;;;;;4927689;29;20039;-82
2023/03/23 09:19:24;;;;;;;17.23;4.13;;;;;;;;;;4919408;29;20439;-82
2023/03/23 09:21:50;;;;;;;13.57;3.22;;;;;;;;;;4933655;29;20031;-81
2023/03/23 09:24:16;;;;;;;17.55;3.83;;;;;;;;;;4935848;29;20043;-82
2023/03/23 09:26:42;;;;;;;15.48;3.90;;;;;;;;;;4920640;29;20059;-82
2023/03/23 09:29:09;;;;;;;10.82;2.97;;;;;;;;;;4934418;29;20028;-82
2023/03/23 09:31:36;;;;;;;14.52;3.30;;;;;;;;;;4935824;29;20075;-82
2023/03/23 09:34:04;;;;;;;15.27;3.15;;;;;;;;;;4937117;29;20028;-82
2023/03/23 09:36:30;;;;;;;12.73;2.90;;;;;;;;;;4933100;29;20059;-82
2023/03/23 09:38:56;;;;;;;16.20;3.25;;;;;;;;;;4933376;29;20536;-82
2023/03/23 09:41:35;;;;;;;14.60;3.25;;;;;;;;;;4986315;23;20074;-82
2023/03/23 09:44:28;;;;;;;14.18;3.30;;;;;;;;;;4957532;29;20126;-82
2023/03/23 09:47:02;;;;;;;16.13;3.53;;;;;;;;;;4955560;29;20039;-82
2023/03/23 09:49:34;;;;;;;15.18;3.10;;;;;;;;;;4931942;29;20036;-80
2023/03/23 09:52:03;;;;;;;17.55;3.92;;;;;;;;;;4937717;29;20027;-80
2023/03/23 09:54:36;;;;;;;16.33;3.47;;;;;;;;;;4936691;29;20034;-80
2023/03/23 09:57:02;;;;;;;11.05;2.75;;;;;;;;;;4936856;29;20108;-80
2023/03/23 09:59:37;;;;;;;17.40;3.75;;;;;;;;;;4936587;29;20078;-80
2023/03/23 10:02:15;;;;;;;17.98;3.72;;;;;;;;;;4936901;29;20479;-80
2023/03/23 10:04:52;;;;;;;15.80;3.35;;;;;;;;;;4938206;29;20107;-80
2023/03/23 10:07:27;;;;;;;16.52;3.60;;;;;;;;;;4939639;29;20078;-80
2023/03/23 10:09:54;;;;;;;18.35;3.95;;;;;;;;;;4936990;29;20074;-80
2023/03/23 10:12:20;;;;;;;19.08;3.25;;;;;;;;;;4935632;29;20031;-80
2023/03/23 10:15:05;;;;;;;15.57;3.40;;;;;;;;;;4940589;29;20035;-81
2023/03/23 10:17:31;;;;;;;17.08;3.38;;;;;;;;;;4936874;29;20032;-81
2023/03/23 10:20:00;;;;;;;15.45;3.10;;;;;;;;;;4937289;29;20038;-81
2023/03/23 10:22:32;;;;;;;17.92;4.07;;;;;;;;;;4937254;29;20455;-81
2023/03/23 10:25:01;;;;;;;15.27;3.45;;;;;;;;;;4937224;29;20430;-80
2023/03/23 10:27:34;;;;;;;19.80;3.83;;;;;;;;;;4936892;29;20028;-81
2023/03/23 10:30:20;;;;;;;23.42;4.05;;;;;;;;;;4937611;29;20031;-81
2023/03/23 10:32:47;;;;;;;18.92;3.38;;;;;;;;;;4937890;29;20035;-81
2023/03/23 10:37:50;;;;;;;13.68;2.78;;;;;;;;;;4922812;23;20092;-78
2023/03/23 10:40:19;;;;;;;18.40;3.20;;;;;;;;;;4923246;29;20083;-78
2023/03/23 10:42:45;;;;;;;18.00;3.47;;;;;;;;;;4902572;29;20036;-78
2023/03/23 10:45:15;;;;;;;19.45;2.80;;;;;;;;;;4920029;29;20032;-78
2023/03/23 10:47:41;;;;;;;;;;;;;;;;;;4919999;29;20032;-78
2023/03/23 10:50:11;;;;;;;17.40;2.60;;;;;;;;;;4918454;29;19910;-78
2023/03/23 10:52:39;;;;;;;19.10;2.67;;;;;;;;;;4918391;29;20036;-78
2023/03/23 10:55:09;;;;;;;14.20;3.20;;;;;;;;;;4917507;29;20024;-78
2023/03/23 10:57:36;;;;;;;15.85;2.97;;;;;;;;;;4916409;29;20039;-78
2023/03/23 11:00:17;;;;;;;11.55;2.63;;;;;;;;;;4917942;29;20052;-78
2023/03/23 11:02:48;;;;;;;17.10;2.92;;;;;;;;;;4916647;29;20060;-78
2023/03/23 11:05:24;;;;;;;11.05;2.60;;;;;;;;;;4917062;29;20398;-78
2023/03/23 11:07:55;;;;;;;13.18;3.13;;;;;;;;;;4916630;29;20094;-78
2023/03/23 11:10:21;;;;;;;15.05;3.13;;;;;;;;;;4917641;29;20075;-78
2023/03/23 11:12:47;;;;;;;14.65;2.80;;;;;;;;;;4917217;29;20024;-78
2023/03/23 11:15:34;;;;;;;12.90;2.63;;;;;;;;;;4917635;29;20039;-78
2023/03/23 11:18:03;;;;;;;13.68;3.03;;;;;;;;;;4919155;29;20035;-78
2023/03/23 11:20:30;;;;;;;13.93;2.67;;;;;;;;;;4917238;29;20034;-78
2023/03/23 11:22:56;;;;;;;12.98;2.30;;;;;;;;;;4917092;29;20016;-78
2023/03/23 11:25:22;;;;;;;12.88;2.83;;;;;;;;;;4917184;29;20080;-78
2023/03/23 11:27:49;;;;;;;15.35;2.78;;;;;;;;;;4916271;29;20079;-78
2023/03/23 11:30:18;;;;;;;12.65;2.05;;;;;;;;;;4914305;29;20016;-78
2023/03/23 11:32:46;;;;;;;14.90;3.60;;;;;;;;;;4915846;29;20076;-78
2023/03/23 11:35:16;;;;;;;14.43;2.45;;;;;;;;;;4915015;29;20254;-78
2023/03/23 11:37:49;;;;;;;13.32;2.55;;;;;;;;;;4912845;29;20055;-77
2023/03/23 11:40:18;;;;;;;17.00;3.33;;;;;;;;;;4909408;29;20647;-77
2023/03/23 11:42:50;;;;;;;12.13;2.53;;;;;;;;;;4906342;29;20385;-78
2023/03/23 11:45:22;;;;;;;14.77;2.75;;;;;;;;;;4912843;29;20079;-77
2023/03/23 11:48:11;;;;;;;12.43;2.50;;;;;;;;;;4909528;29;20327;-77
2023/03/23 11:50:47;;;;;;;14.20;2.33;;;;;;;;;;4914715;29;20062;-77
2023/03/23 11:53:16;;;;;;;13.25;2.40;;;;;;;;;;4919269;29;20107;-77
2023/03/23 11:55:45;;;;;;;14.85;2.83;;;;;;;;;;4919215;29;20382;-77
2023/03/23 11:58:15;;;;;;;15.65;2.67;;;;;;;;;;4911888;29;20505;-77
2023/03/23 12:00:50;;;;;;;9.13;2.38;;;;;;;;;;4917521;29;20056;-77
2023/03/23 12:03:46;;;;;;;14.07;2.42;;;;;;;;;;4917480;29;20423;-77
2023/03/23 12:06:13;;;;;;;12.32;2.30;;;;;;;;;;4917270;29;20024;-77
2023/03/23 12:08:45;;;;;;;14.35;2.92;;;;;;;;;;4916605;29;20024;-77
2023/03/23 12:11:12;;;;;;;12.75;2.97;;;;;;;;;;4918223;29;20031;-77
2023/03/23 12:13:52;;;;;;;15.80;2.38;;;;;;;;;;4918748;29;20042;-77
2023/03/23 12:16:31;;;;;;;14.80;2.63;;;;;;;;;;4918768;29;20099;-77
2023/03/23 12:19:17;;;;;;;13.70;2.45;;;;;;;;;;4918427;29;20029;-77
2023/03/23 12:21:53;;;;;;;14.75;1.98;;;;;;;;;;4918562;29;20087;-77
2023/03/23 12:24:31;;;;;;;12.88;2.88;;;;;;;;;;4918161;29;20034;-77
2023/03/23 12:27:03;;;;;;;11.10;2.08;;;;;;;;;;4918268;29;20413;-77
2023/03/23 12:29:42;;;;;;;16.30;3.00;;;;;;;;;;4918359;29;20111;-77
2023/03/23 12:32:27;;;;;;;14.05;2.83;;;;;;;;;;4918892;29;20035;-77
2023/03/23 12:35:05;;;;;;;11.45;2.38;;;;;;;;;;4918259;29;20032;-76
2023/03/23 12:37:47;;;;;;;12.90;2.50;;;;;;;;;;4918678;29;20048;-77
2023/03/23 12:40:21;;;;;;;12.35;2.83;;;;;;;;;;4920506;29;20137;-79
2023/03/23 12:42:55;;;;;;;13.38;2.40;;;;;;;;;;4921752;29;20092;-78
2023/03/23 12:45:40;;;;;;;13.30;2.45;;;;;;;;;;4918831;29;20036;-77
2023/03/23 12:48:12;;;;;;;13.63;2.42;;;;;;;;;;4918220;29;20058;-77
2023/03/23 12:50:45;;;;;;;17.38;2.80;;;;;;;;;;4918387;29;20047;-77
2023/03/23 12:53:21;;;;;;;14.90;2.42;;;;;;;;;;4918901;29;20055;-78
2023/03/23 12:55:50;;;;;;;14.48;2.97;;;;;;;;;;4919350;29;20028;-77
2023/03/23 12:58:30;;;;;;;15.30;3.10;;;;;;;;;;4918270;29;20029;-77
2023/03/23 13:01:18;;;;;;;12.85;2.45;;;;;;;;;;4919196;29;20366;-77
2023/03/23 13:03:50;;;;;;;13.88;3.58;;;;;;;;;;4918195;29;20028;-78
2023/03/23 13:06:22;;;;;;;14.40;2.50;;;;;;;;;;4919074;29;20055;-77
2023/03/23 13:08:51;;;;;;;14.40;2.70;;;;;;;;;;4920975;29;20043;-77
2023/03/23 13:11:20;;;;;;;18.23;3.03;;;;;;;;;;4917597;29;20032;-77
2023/03/23 13:13:51;;;;;;;12.68;2.65;;;;;;;;;;4917184;29;20032;-76
2023/03/23 13:16:26;;;;;;;19.20;3.00;;;;;;;;;;4917704;29;20039;-76
2023/03/23 13:19:00;;;;;;;16.90;2.72;;;;;;;;;;4917244;29;20043;-76
2023/03/23 13:21:26;;;;;;;12.35;2.38;;;;;;;;;;4903571;29;20036;-76
2023/03/23 13:24:12;;;;;;;20.65;2.92;;;;;;;;;;4898136;29;20474;-76
2023/03/23 13:26:40;;;;;;;11.68;2.10;;;;;;;;;;4898650;29;20028;-77
2023/03/23 13:29:21;;;;;;;14.20;2.50;;;;;;;;;;4898930;29;20029;-76
2023/03/23 13:31:49;;;;;;;15.10;2.50;;;;;;;;;;4917046;29;20075;-76
2023/03/23 13:34:15;;;;;;;15.02;2.55;;;;;;;;;;4916952;29;20067;-76
2023/03/23 13:36:42;;;;;;;13.15;2.25;;;;;;;;;;4904560;29;20147;-76
2023/03/23 13:39:24;;;;;;;13.65;3.15;;;;;;;;;;4878851;29;20475;-77
2023/03/23 13:42:10;;;;;;;14.35;1.95;;;;;;;;;;4875186;29;20041;-78
2023/03/23 13:44:46;;;;;;;15.02;2.15;;;;;;;;;;4859109;29;20046;-77
2023/03/23 13:47:26;;;;;;;15.57;2.63;;;;;;;;;;4861091;29;20037;-76
2023/03/23 13:49:55;;;;;;;9.80;1.98;;;;;;;;;;4860955;29;20078;-76
2023/03/23 13:52:26;;;;;;;11.90;2.20;;;;;;;;;;4860822;29;20026;-77
2023/03/23 13:54:52;;;;;;;11.98;2.10;;;;;;;;;;4864076;29;20387;-78
2023/03/23 13:57:21;;;;;;;6.18;1.50;;;;;;;;;;4861430;29;20114;-77
2023/03/23 13:59:50;;;;;;;10.23;2.00;;;;;;;;;;4861258;29;20381;-77
2023/03/23 14:02:28;;;;;;;10.55;2.50;;;;;;;;;;4860986;29;20025;-77
2023/03/23 14:04:54;;;;;;;9.05;1.95;;;;;;;;;;4861046;29;20041;-77
2023/03/23 14:07:20;;;;;;;11.48;1.80;;;;;;;;;;4861323;29;20068;-76
2023/03/23 14:09:48;;;;;;;12.40;1.92;;;;;;;;;;4860357;29;20045;-76
2023/03/23 14:12:19;;;;;;;10.20;2.15;;;;;;;;;;4860623;29;20372;-76
2023/03/23 14:14:47;;;;;;;9.48;1.77;;;;;;;;;;4860534;29;20057;-75
2023/03/23 14:17:17;;;;;;;11.75;1.95;;;;;;;;;;4860490;29;20570;-76
2023/03/23 14:19:47;;;;;;;14.77;2.13;;;;;;;;;;4860362;29;20486;-76
2023/03/23 14:22:18;;;;;;;8.18;2.50;;;;;;;;;;4860221;29;20034;-76
2023/03/23 14:24:44;;;;;;;9.60;2.00;;;;;;;;;;4860014;29;20040;-76
2023/03/23 14:27:15;;;;;;;8.60;2.15;;;;;;;;;;4860563;29;20039;-76
2023/03/23 14:29:41;;;;;;;10.60;1.95;;;;;;;;;;4860226;29;20038;-76
2023/03/23 14:32:08;;;;;;;8.00;1.80;;;;;;;;;;4860029;29;20025;-76
2023/03/23 14:34:35;;;;;;;10.88;1.95;;;;;;;;;;4860010;29;20034;-76
2023/03/23 14:37:01;;;;;;;8.70;1.70;;;;;;;;;;4879933;29;20045;-76
2023/03/23 14:39:28;;;;;;;6.65;1.20;;;;;;;;;;4896901;29;20168;-76
2023/03/23 14:41:55;;;;;;;12.07;2.03;;;;;;;;;;4916743;29;20024;-76
2023/03/23 14:44:24;;;;;;;7.72;1.98;;;;;;;;;;4922966;29;20047;-76
2023/03/23 14:46:50;;;;;;;10.60;1.77;;;;;;;;;;4916309;29;20401;-76